createdAt,value
2016-05-11T00:00:00.712Z,19.4
2016-05-11T00:00:10.728Z,19.28
2016-05-11T00:00:21.118Z,19.37
2016-05-11T00:00:30.887Z,19.4
2016-05-11T00:00:40.887Z,19.33
2016-05-11T00:00:50.903Z,19.39
2016-05-11T00:01:00.903Z,19.37
2016-05-11T00:01:10.903Z,19.37
2016-05-11T00:01:20.918Z,19.36
2016-05-11T00:01:30.920Z,19.37
2016-05-11T00:01:40.780Z,19.37
2016-05-11T00:01:50.936Z,19.37
2016-05-11T00:02:00.936Z,19.33
2016-05-11T00:02:10.952Z,19.31
2016-05-11T00:02:20.952Z,19.29
2016-05-11T00:02:30.955Z,19.39
2016-05-11T00:02:40.970Z,19.31
2016-05-11T00:02:50.970Z,19.28
2016-05-11T00:03:00.986Z,19.31
2016-05-11T00:03:10.986Z,19.32
2016-05-11T00:03:20.986Z,19.28
2016-05-11T00:03:30.848Z,19.31
2016-05-11T00:03:41.004Z,19.26
2016-05-11T00:03:51.020Z,19.31
2016-05-11T00:04:01.004Z,19.28
2016-05-11T00:04:10.864Z,19.29
2016-05-11T00:04:20.864Z,19.23
2016-05-11T00:04:31.038Z,19.29
2016-05-11T00:04:41.038Z,19.25
2016-05-11T00:04:51.038Z,19.28
2016-05-11T00:05:01.053Z,19.29
2016-05-11T00:05:11.053Z,19.25
2016-05-11T00:05:21.053Z,19.22
2016-05-11T00:05:31.072Z,19.29
2016-05-11T00:05:41.072Z,19.29
2016-05-11T00:05:51.072Z,19.25
2016-05-11T00:06:01.103Z,19.28
2016-05-11T00:06:11.088Z,19.28
2016-05-11T00:06:21.088Z,19.29
2016-05-11T00:06:31.106Z,19.29
2016-05-11T00:06:41.106Z,19.29
2016-05-11T00:06:50.966Z,19.16
2016-05-11T00:07:01.122Z,19.21
2016-05-11T00:07:10.966Z,19.23
2016-05-11T00:07:20.981Z,19.22
2016-05-11T00:07:31.139Z,19.26
2016-05-11T00:07:41.139Z,19.18
2016-05-11T00:07:51.155Z,19.14
2016-05-11T00:08:01.155Z,19.19
2016-05-11T00:08:11.155Z,19.21
2016-05-11T00:08:21.171Z,19.23
2016-05-11T00:08:31.018Z,19.22
2016-05-11T00:08:41.175Z,19.29
2016-05-11T00:08:51.190Z,19.18
2016-05-11T00:09:01.190Z,19.13
2016-05-11T00:09:11.206Z,19.19
2016-05-11T00:09:21.206Z,19.19
2016-05-11T00:09:31.208Z,19.14
2016-05-11T00:09:41.208Z,19.26
2016-05-11T00:09:51.224Z,19.21
2016-05-11T00:10:01.224Z,19.18
2016-05-11T00:10:11.083Z,19.21
2016-05-11T00:10:21.239Z,19.25
2016-05-11T00:10:31.241Z,19.16
2016-05-11T00:10:41.257Z,19.18
2016-05-11T00:10:51.257Z,19.26
2016-05-11T00:11:01.257Z,19.25
2016-05-11T00:11:11.272Z,19.19
2016-05-11T00:11:21.272Z,19.19
2016-05-11T00:11:31.276Z,19.16
2016-05-11T00:11:41.292Z,19.18
2016-05-11T00:11:51.292Z,19.21
2016-05-11T00:12:01.292Z,19.19
2016-05-11T00:12:11.308Z,19.18
2016-05-11T00:12:21.308Z,19.16
2016-05-11T00:12:31.310Z,19.16
2016-05-11T00:12:41.325Z,19.19
2016-05-11T00:12:51.325Z,19.19
2016-05-11T00:13:01.341Z,19.28
2016-05-11T00:13:11.341Z,19.21
2016-05-11T00:13:21.341Z,19.1
2016-05-11T00:13:31.359Z,19.18
2016-05-11T00:13:41.374Z,19.18
2016-05-11T00:13:51.359Z,19.14
2016-05-11T00:14:01.374Z,19.19
2016-05-11T00:14:11.374Z,19.14
2016-05-11T00:14:21.374Z,19.26
2016-05-11T00:14:31.394Z,19.18
2016-05-11T00:14:41.394Z,19.19
2016-05-11T00:14:51.394Z,19.11
2016-05-11T00:15:01.409Z,19.16
2016-05-11T00:15:11.409Z,19.13
2016-05-11T00:15:21.425Z,19.13
2016-05-11T00:15:31.661Z,19.16
2016-05-11T00:15:41.427Z,19.16
2016-05-11T00:15:51.427Z,19.16
2016-05-11T00:16:01.443Z,19.22
2016-05-11T00:16:11.443Z,19.21
2016-05-11T00:16:21.302Z,19.1
2016-05-11T00:16:31.461Z,19.19
2016-05-11T00:16:41.461Z,19.13
2016-05-11T00:16:51.321Z,19.16
2016-05-11T00:17:01.477Z,19.21
2016-05-11T00:17:11.321Z,19.16
2016-05-11T00:17:21.493Z,19.21
2016-05-11T00:17:31.495Z,19.11
2016-05-11T00:17:41.526Z,19.16
2016-05-11T00:17:51.510Z,19.11
2016-05-11T00:18:01.354Z,19.11
2016-05-11T00:18:11.526Z,19.08
2016-05-11T00:18:21.541Z,19.16
2016-05-11T00:18:31.544Z,19.08
2016-05-11T00:18:41.373Z,19.08
2016-05-11T00:18:51.544Z,19.07
2016-05-11T00:19:01.560Z,19.07
2016-05-11T00:19:11.560Z,19.19
2016-05-11T00:19:21.560Z,19.16
2016-05-11T00:19:31.563Z,19.02
2016-05-11T00:19:41.422Z,19.07
2016-05-11T00:19:51.579Z,19.11
2016-05-11T00:20:01.422Z,19.1
2016-05-11T00:20:11.438Z,19.14
2016-05-11T00:20:21.594Z,19.1
2016-05-11T00:20:31.596Z,19.14
2016-05-11T00:20:41.612Z,19.11
2016-05-11T00:20:51.612Z,19.19
2016-05-11T00:21:01.612Z,19.1
2016-05-11T00:21:11.628Z,19.04
2016-05-11T00:21:21.487Z,19.06
2016-05-11T00:21:31.631Z,19.02
2016-05-11T00:21:41.646Z,19.07
2016-05-11T00:21:51.490Z,19.11
2016-05-11T00:22:01.662Z,19.07
2016-05-11T00:22:11.506Z,19.13
2016-05-11T00:22:21.662Z,19.06
2016-05-11T00:22:31.665Z,19.08
2016-05-11T00:22:41.680Z,19.13
2016-05-11T00:22:51.680Z,19
2016-05-11T00:23:01.712Z,19.07
2016-05-11T00:23:11.696Z,19.11
2016-05-11T00:23:21.696Z,19.07
2016-05-11T00:23:31.714Z,19.07
2016-05-11T00:23:41.714Z,19.1
2016-05-11T00:23:51.729Z,19.02
2016-05-11T00:24:01.729Z,19.08
2016-05-11T00:24:11.729Z,19.11
2016-05-11T00:24:21.729Z,19.06
2016-05-11T00:24:31.593Z,19
2016-05-11T00:24:41.749Z,19
2016-05-11T00:24:51.765Z,19.08
2016-05-11T00:25:01.765Z,18.99
2016-05-11T00:25:11.765Z,19.02
2016-05-11T00:25:21.780Z,18.95
2016-05-11T00:25:31.782Z,19
2016-05-11T00:25:41.626Z,19.04
2016-05-11T00:25:51.798Z,19.1
2016-05-11T00:26:01.642Z,19.06
2016-05-11T00:26:11.813Z,19.07
2016-05-11T00:26:21.813Z,19.02
2016-05-11T00:26:31.816Z,19.02
2016-05-11T00:26:41.832Z,18.99
2016-05-11T00:26:51.832Z,19.08
2016-05-11T00:27:01.832Z,19.11
2016-05-11T00:27:11.832Z,19.11
2016-05-11T00:27:21.848Z,18.98
2016-05-11T00:27:31.851Z,19.06
2016-05-11T00:27:41.851Z,19.13
2016-05-11T00:27:51.866Z,19.06
2016-05-11T00:28:01.710Z,19.08
2016-05-11T00:28:11.866Z,19.08
2016-05-11T00:28:21.882Z,19.04
2016-05-11T00:28:31.884Z,19.19
2016-05-11T00:28:41.900Z,19.04
2016-05-11T00:28:51.900Z,19.11
2016-05-11T00:29:01.900Z,18.98
2016-05-11T00:29:11.915Z,19.13
2016-05-11T00:29:21.915Z,19.02
2016-05-11T00:29:31.918Z,19.06
2016-05-11T00:29:41.934Z,19.06
2016-05-11T00:29:52.043Z,19.06
2016-05-11T00:30:01.793Z,18.99
2016-05-11T00:30:11.949Z,19.06
2016-05-11T00:30:21.824Z,19.04
2016-05-11T00:30:31.967Z,19
2016-05-11T00:30:41.967Z,19.06
2016-05-11T00:30:51.967Z,19.06
2016-05-11T00:31:01.983Z,19.04
2016-05-11T00:31:11.826Z,19.06
2016-05-11T00:31:21.998Z,19.07
2016-05-11T00:31:32.001Z,18.92
2016-05-11T00:31:42.001Z,19.06
2016-05-11T00:31:51.845Z,19.18
2016-05-11T00:32:02.017Z,19.06
2016-05-11T00:32:12.017Z,19.08
2016-05-11T00:32:21.892Z,19.02
2016-05-11T00:32:32.051Z,18.98
2016-05-11T00:32:42.036Z,19.08
2016-05-11T00:32:52.036Z,19.07
2016-05-11T00:33:02.051Z,18.95
2016-05-11T00:33:12.051Z,19.07
2016-05-11T00:33:22.067Z,19.11
2016-05-11T00:33:32.070Z,19.04
2016-05-11T00:33:42.070Z,18.95
2016-05-11T00:33:52.070Z,19
2016-05-11T00:34:02.085Z,19
2016-05-11T00:34:12.085Z,19.16
2016-05-11T00:34:22.101Z,19.06
2016-05-11T00:34:32.103Z,19.02
2016-05-11T00:34:42.103Z,18.91
2016-05-11T00:34:52.119Z,19
2016-05-11T00:35:02.119Z,18.98
2016-05-11T00:35:11.978Z,19.07
2016-05-11T00:35:22.119Z,18.98
2016-05-11T00:35:32.153Z,18.98
2016-05-11T00:35:42.137Z,19.04
2016-05-11T00:35:52.153Z,19.06
2016-05-11T00:36:02.153Z,18.95
2016-05-11T00:36:12.153Z,19.08
2016-05-11T00:36:22.169Z,19.06
2016-05-11T00:36:32.172Z,18.91
2016-05-11T00:36:42.172Z,18.9
2016-05-11T00:36:52.187Z,18.92
2016-05-11T00:37:02.203Z,18.95
2016-05-11T00:37:12.203Z,18.92
2016-05-11T00:37:22.203Z,19.02
2016-05-11T00:37:32.205Z,18.9
2016-05-11T00:37:42.220Z,18.91
2016-05-11T00:37:52.064Z,18.99
2016-05-11T00:38:02.220Z,19
2016-05-11T00:38:12.408Z,19.07
2016-05-11T00:38:22.236Z,19.02
2016-05-11T00:38:32.239Z,19.04
2016-05-11T00:38:42.255Z,18.91
2016-05-11T00:38:52.255Z,18.94
2016-05-11T00:39:02.255Z,18.99
2016-05-11T00:39:12.270Z,19.02
2016-05-11T00:39:22.270Z,18.99
2016-05-11T00:39:32.289Z,18.92
2016-05-11T00:39:42.289Z,18.98
2016-05-11T00:39:52.289Z,18.9
2016-05-11T00:40:02.289Z,19
2016-05-11T00:40:12.305Z,18.9
2016-05-11T00:40:22.305Z,18.95
2016-05-11T00:40:32.322Z,18.92
2016-05-11T00:40:42.322Z,18.98
2016-05-11T00:40:52.353Z,19.04
2016-05-11T00:41:02.338Z,18.91
2016-05-11T00:41:12.338Z,19
2016-05-11T00:41:22.338Z,18.98
2016-05-11T00:41:32.356Z,19
2016-05-11T00:41:42.200Z,18.87
2016-05-11T00:41:52.356Z,19
2016-05-11T00:42:02.372Z,18.88
2016-05-11T00:42:12.372Z,18.92
2016-05-11T00:42:22.372Z,18.92
2016-05-11T00:42:32.608Z,18.99
2016-05-11T00:42:42.390Z,18.99
2016-05-11T00:42:52.390Z,18.98
2016-05-11T00:43:02.405Z,18.87
2016-05-11T00:43:12.249Z,18.99
2016-05-11T00:43:22.265Z,18.98
2016-05-11T00:43:32.425Z,18.98
2016-05-11T00:43:42.425Z,18.99
2016-05-11T00:43:52.441Z,18.94
2016-05-11T00:44:02.441Z,18.99
2016-05-11T00:44:12.441Z,18.91
2016-05-11T00:44:22.456Z,18.99
2016-05-11T00:44:32.474Z,18.95
2016-05-11T00:44:42.458Z,18.91
2016-05-11T00:45:11.411Z,19
2016-05-11T00:45:21.552Z,18.98
2016-05-11T00:45:32.164Z,18.95
2016-05-11T00:45:41.555Z,18.94
2016-05-11T00:45:51.571Z,18.91
2016-05-11T00:46:01.571Z,18.92
2016-05-11T00:46:11.602Z,18.95
2016-05-11T00:46:22.383Z,19.02
2016-05-11T00:46:31.589Z,18.95
2016-05-11T00:46:42.027Z,18.94
2016-05-11T00:46:51.605Z,18.98
2016-05-11T00:47:01.605Z,18.98
2016-05-11T00:47:11.605Z,18.98
2016-05-11T00:47:21.620Z,19
2016-05-11T00:47:32.076Z,19
2016-05-11T00:47:41.841Z,18.98
2016-05-11T00:48:01.107Z,18.98
2016-05-11T00:48:10.966Z,18.91
2016-05-11T00:48:20.966Z,19
2016-05-11T00:48:30.969Z,18.91
2016-05-11T00:48:40.985Z,18.95
2016-05-11T00:48:51.000Z,18.94
2016-05-11T00:49:01.000Z,18.98
2016-05-11T00:49:11.000Z,18.99
2016-05-11T00:49:21.000Z,19.02
2016-05-11T00:49:30.863Z,18.92
2016-05-11T00:49:40.863Z,18.94
2016-05-11T00:49:51.019Z,18.95
2016-05-11T00:50:01.035Z,18.98
2016-05-11T00:50:11.035Z,18.9
2016-05-11T00:50:21.035Z,18.88
2016-05-11T00:50:31.052Z,18.9
2016-05-11T00:50:41.099Z,18.99
2016-05-11T00:50:51.068Z,18.94
2016-05-11T00:51:01.068Z,18.92
2016-05-11T00:51:11.068Z,18.91
2016-05-11T00:51:21.084Z,18.94
2016-05-11T00:51:31.087Z,18.91
2016-05-11T00:51:41.087Z,18.94
2016-05-11T00:51:51.102Z,18.9
2016-05-11T00:52:01.118Z,18.95
2016-05-11T00:52:11.102Z,18.92
2016-05-11T00:52:20.977Z,18.9
2016-05-11T00:52:30.964Z,18.9
2016-05-11T00:52:41.120Z,18.91
2016-05-11T00:52:51.135Z,18.92
2016-05-11T00:53:01.135Z,18.91
2016-05-11T00:53:11.135Z,18.9
2016-05-11T00:53:21.151Z,18.91
2016-05-11T00:53:31.154Z,18.87
2016-05-11T00:53:41.170Z,18.85
2016-05-11T00:53:51.170Z,18.94
2016-05-11T00:54:01.170Z,18.9
2016-05-11T00:54:11.170Z,18.91
2016-05-11T00:54:21.185Z,18.9
2016-05-11T00:54:31.204Z,18.92
2016-05-11T00:54:41.188Z,18.9
2016-05-11T00:54:51.204Z,18.9
2016-05-11T00:55:01.204Z,18.85
2016-05-11T00:55:11.220Z,18.91
2016-05-11T00:55:21.235Z,18.87
2016-05-11T00:55:31.223Z,18.9
2016-05-11T00:55:41.223Z,18.85
2016-05-11T00:55:51.238Z,18.84
2016-05-11T00:56:01.238Z,18.78
2016-05-11T00:56:11.254Z,18.88
2016-05-11T00:56:21.269Z,18.78
2016-05-11T00:56:31.256Z,18.88
2016-05-11T00:56:41.271Z,18.85
2016-05-11T00:56:51.271Z,18.82
2016-05-11T00:57:01.271Z,18.9
2016-05-11T00:57:11.287Z,18.84
2016-05-11T00:57:24.709Z,18.82
2016-05-11T00:57:32.556Z,18.84
2016-05-11T00:57:44.009Z,18.85
2016-05-11T00:57:54.368Z,18.81
2016-05-11T00:58:02.509Z,18.88
2016-05-11T00:58:13.228Z,18.8
2016-05-11T00:58:22.274Z,18.72
2016-05-11T00:58:32.277Z,18.85
2016-05-11T00:58:42.324Z,18.8
2016-05-11T00:58:52.277Z,18.84
2016-05-11T00:59:02.293Z,18.85
2016-05-11T00:59:12.527Z,18.73
2016-05-11T00:59:22.309Z,18.8
2016-05-11T00:59:32.311Z,18.73
2016-05-11T00:59:42.311Z,18.78
2016-05-11T00:59:52.326Z,18.78
2016-05-11T01:00:02.186Z,18.76
2016-05-11T01:00:12.342Z,18.81
2016-05-11T01:00:22.342Z,18.76
2016-05-11T01:00:32.189Z,18.81
2016-05-11T01:00:42.189Z,18.75
2016-05-11T01:00:52.204Z,18.78
2016-05-11T01:01:02.361Z,18.81
2016-05-11T01:01:12.361Z,18.81
2016-05-11T01:01:22.376Z,18.84
2016-05-11T01:01:32.378Z,18.73
2016-05-11T01:01:42.378Z,18.78
2016-05-11T01:01:52.378Z,18.76
2016-05-11T01:02:02.394Z,18.7
2016-05-11T01:02:12.394Z,18.82
2016-05-11T01:02:22.409Z,18.84
2016-05-11T01:02:32.444Z,18.8
2016-05-11T01:02:42.412Z,18.78
2016-05-11T01:02:52.428Z,18.73
2016-05-11T01:03:02.475Z,18.7
2016-05-11T01:03:31.384Z,18.75
2016-05-11T01:03:41.369Z,18.76
2016-05-11T01:03:51.369Z,18.85
2016-05-11T01:04:01.369Z,18.7
2016-05-11T01:04:11.384Z,18.75
2016-05-11T01:04:21.572Z,18.81
2016-05-11T01:04:31.434Z,18.75
2016-05-11T01:04:41.481Z,18.76
2016-05-11T01:04:51.543Z,18.82
2016-05-11T01:05:01.481Z,18.7
2016-05-11T01:05:11.262Z,18.76
2016-05-11T01:05:21.434Z,18.85
2016-05-11T01:05:31.281Z,18.69
2016-05-11T01:05:41.437Z,18.72
2016-05-11T01:05:51.437Z,18.7
2016-05-11T01:06:01.437Z,18.84
2016-05-11T01:06:11.609Z,18.78
2016-05-11T01:06:21.609Z,18.85
2016-05-11T01:06:31.502Z,18.69
2016-05-11T01:06:41.502Z,18.72
2016-05-11T01:06:51.470Z,18.82
2016-05-11T01:07:01.470Z,18.69
2016-05-11T01:07:11.502Z,18.7
2016-05-11T01:07:21.486Z,18.72
2016-05-11T01:07:31.505Z,18.76
2016-05-11T01:07:41.348Z,18.72
2016-05-11T01:07:51.520Z,18.7
2016-05-11T01:08:01.520Z,18.76
2016-05-11T01:08:11.520Z,18.69
2016-05-11T01:08:21.520Z,18.66
2016-05-11T01:08:31.538Z,18.72
2016-05-11T01:08:41.538Z,18.69
2016-05-11T01:08:51.397Z,18.7
2016-05-11T01:09:01.553Z,18.8
2016-05-11T01:09:11.553Z,18.69
2016-05-11T01:09:21.569Z,18.73
2016-05-11T01:09:31.572Z,18.69
2016-05-11T01:09:41.588Z,18.72
2016-05-11T01:09:51.588Z,18.76
2016-05-11T01:10:01.588Z,18.73
2016-05-11T01:10:11.603Z,18.76
2016-05-11T01:10:21.603Z,18.72
2016-05-11T01:10:31.653Z,18.72
2016-05-11T01:10:41.841Z,18.72
2016-05-11T01:11:00.794Z,18.69
2016-05-11T01:11:10.841Z,18.72
2016-05-11T01:11:20.841Z,18.75
2016-05-11T01:11:30.703Z,18.73
2016-05-11T01:11:40.859Z,18.73
2016-05-11T01:11:50.859Z,18.69
2016-05-11T01:12:00.859Z,18.69
2016-05-11T01:12:10.875Z,18.72
2016-05-11T01:12:20.875Z,18.69
2016-05-11T01:12:30.878Z,18.73
2016-05-11T01:12:40.894Z,18.7
2016-05-11T01:12:50.894Z,18.7
2016-05-11T01:13:00.909Z,18.72
2016-05-11T01:13:10.909Z,18.66
2016-05-11T01:13:20.909Z,18.75
2016-05-11T01:13:30.927Z,18.75
2016-05-11T01:13:40.942Z,18.7
2016-05-11T01:13:50.927Z,18.72
2016-05-11T01:14:00.817Z,18.69
2016-05-11T01:14:10.786Z,18.73
2016-05-11T01:14:20.958Z,18.73
2016-05-11T01:14:30.961Z,18.75
2016-05-11T01:14:40.961Z,18.7
2016-05-11T01:14:50.836Z,18.7
2016-05-11T01:15:00.977Z,18.66
2016-05-11T01:15:10.992Z,18.72
2016-05-11T01:15:20.992Z,18.67
2016-05-11T01:15:31.026Z,18.72
2016-05-11T01:15:40.994Z,18.67
2016-05-11T01:15:50.994Z,18.7
2016-05-11T01:16:01.026Z,18.62
2016-05-11T01:16:10.869Z,18.7
2016-05-11T01:16:21.010Z,18.72
2016-05-11T01:16:31.030Z,18.66
2016-05-11T01:16:41.030Z,18.69
2016-05-11T01:16:51.030Z,18.7
2016-05-11T01:17:01.045Z,18.73
2016-05-11T01:17:11.061Z,18.75
2016-05-11T01:17:21.061Z,18.73
2016-05-11T01:17:31.062Z,18.67
2016-05-11T01:17:41.062Z,18.67
2016-05-11T01:17:51.077Z,18.65
2016-05-11T01:18:00.921Z,18.63
2016-05-11T01:18:11.093Z,18.65
2016-05-11T01:18:21.093Z,18.65
2016-05-11T01:18:31.112Z,18.65
2016-05-11T01:18:41.830Z,18.73
2016-05-11T01:18:51.127Z,18.6
2016-05-11T01:19:01.112Z,18.73
2016-05-11T01:19:11.127Z,18.73
2016-05-11T01:19:20.971Z,18.66
2016-05-11T01:19:31.130Z,18.63
2016-05-11T01:19:41.146Z,18.73
2016-05-11T01:19:51.146Z,18.63
2016-05-11T01:20:01.146Z,18.72
2016-05-11T01:20:11.162Z,18.7
2016-05-11T01:20:21.005Z,18.73
2016-05-11T01:20:31.180Z,18.7
2016-05-11T01:20:41.180Z,18.65
2016-05-11T01:20:51.180Z,18.72
2016-05-11T01:21:01.196Z,18.72
2016-05-11T01:21:11.196Z,18.67
2016-05-11T01:21:21.196Z,18.66
2016-05-11T01:21:31.199Z,18.65
2016-05-11T01:21:41.214Z,18.7
2016-05-11T01:21:51.058Z,18.73
2016-05-11T01:22:01.214Z,18.7
2016-05-11T01:22:11.074Z,18.63
2016-05-11T01:22:21.230Z,18.7
2016-05-11T01:22:31.295Z,18.63
2016-05-11T01:22:42.091Z,18.63
2016-05-11T01:22:54.623Z,18.65
2016-05-11T01:23:03.748Z,18.73
2016-05-11T01:23:13.810Z,18.66
2016-05-11T01:23:23.763Z,18.7
2016-05-11T01:23:35.079Z,18.66
2016-05-11T01:23:43.251Z,18.67
2016-05-11T01:23:53.251Z,18.72
2016-05-11T01:24:03.235Z,18.65
2016-05-11T01:24:13.251Z,18.72
2016-05-11T01:24:23.251Z,18.66
2016-05-11T01:24:33.268Z,18.62
2016-05-11T01:24:43.253Z,18.62
2016-05-11T01:24:53.253Z,18.66
2016-05-11T01:25:03.112Z,18.67
2016-05-11T01:25:13.268Z,18.63
2016-05-11T01:25:23.284Z,18.65
2016-05-11T01:25:33.288Z,18.63
2016-05-11T01:25:43.304Z,18.73
2016-05-11T01:25:53.304Z,18.66
2016-05-11T01:26:03.304Z,18.7
2016-05-11T01:26:13.304Z,18.65
2016-05-11T01:26:23.319Z,18.65
2016-05-11T01:26:33.321Z,18.67
2016-05-11T01:26:43.165Z,18.66
2016-05-11T01:26:53.181Z,18.7
2016-05-11T01:27:03.181Z,18.75
2016-05-11T01:27:13.352Z,18.72
2016-05-11T01:27:23.352Z,18.67
2016-05-11T01:27:33.355Z,18.67
2016-05-11T01:27:43.371Z,18.65
2016-05-11T01:27:53.371Z,18.67
2016-05-11T01:28:03.371Z,18.72
2016-05-11T01:28:13.387Z,18.63
2016-05-11T01:28:23.387Z,18.65
2016-05-11T01:28:33.405Z,18.75
2016-05-11T01:28:43.421Z,18.6
2016-05-11T01:28:53.405Z,18.7
2016-05-11T01:29:03.405Z,18.58
2016-05-11T01:29:13.265Z,18.67
2016-05-11T01:29:23.437Z,18.63
2016-05-11T01:29:33.439Z,18.7
2016-05-11T01:29:43.439Z,18.63
2016-05-11T01:29:53.439Z,18.72
2016-05-11T01:30:03.298Z,18.63
2016-05-11T01:30:13.470Z,18.66
2016-05-11T01:30:23.314Z,18.72
2016-05-11T01:30:33.316Z,18.73
2016-05-11T01:30:43.472Z,18.67
2016-05-11T01:30:53.331Z,18.66
2016-05-11T01:31:03.472Z,18.67
2016-05-11T01:31:13.487Z,18.66
2016-05-11T01:31:23.487Z,18.62
2016-05-11T01:31:33.506Z,18.65
2016-05-11T01:31:43.506Z,18.72
2016-05-11T01:31:53.506Z,18.65
2016-05-11T01:32:03.365Z,18.72
2016-05-11T01:32:13.522Z,18.63
2016-05-11T01:32:23.522Z,18.63
2016-05-11T01:32:33.541Z,18.66
2016-05-11T01:32:43.557Z,18.72
2016-05-11T01:32:53.541Z,18.69
2016-05-11T01:33:03.401Z,18.65
2016-05-11T01:33:13.557Z,18.67
2016-05-11T01:33:23.573Z,18.66
2016-05-11T01:33:33.575Z,18.63
2016-05-11T01:33:43.575Z,18.6
2016-05-11T01:33:53.575Z,18.66
2016-05-11T01:34:03.590Z,18.65
2016-05-11T01:34:13.590Z,18.6
2016-05-11T01:34:23.606Z,18.63
2016-05-11T01:34:33.609Z,18.62
2016-05-11T01:34:43.609Z,18.63
2016-05-11T01:34:53.624Z,18.66
2016-05-11T01:35:03.624Z,18.58
2016-05-11T01:35:13.624Z,18.63
2016-05-11T01:35:23.656Z,18.62
2016-05-11T01:35:33.642Z,18.62
2016-05-11T01:35:43.642Z,18.65
2016-05-11T01:35:53.501Z,18.65
2016-05-11T01:36:03.658Z,18.62
2016-05-11T01:36:13.658Z,18.72
2016-05-11T01:36:23.673Z,18.67
2016-05-11T01:36:33.520Z,18.66
2016-05-11T01:36:43.676Z,18.62
2016-05-11T01:36:53.692Z,18.67
2016-05-11T01:37:03.692Z,18.62
2016-05-11T01:37:13.692Z,18.6
2016-05-11T01:37:23.708Z,18.62
2016-05-11T01:37:33.553Z,18.63
2016-05-11T01:37:43.569Z,18.55
2016-05-11T01:37:53.725Z,18.62
2016-05-11T01:38:03.725Z,18.58
2016-05-11T01:38:13.725Z,18.65
2016-05-11T01:38:23.741Z,18.72
2016-05-11T01:38:33.760Z,18.58
2016-05-11T01:38:43.760Z,18.62
2016-05-11T01:38:53.604Z,18.58
2016-05-11T01:39:03.760Z,18.58
2016-05-11T01:39:13.776Z,18.66
2016-05-11T01:39:23.776Z,18.62
2016-05-11T01:39:33.778Z,18.62
2016-05-11T01:39:43.794Z,18.62
2016-05-11T01:39:53.794Z,18.6
2016-05-11T01:40:03.809Z,18.62
2016-05-11T01:40:13.809Z,18.63
2016-05-11T01:40:23.825Z,18.62
2016-05-11T01:40:33.843Z,18.62
2016-05-11T01:40:43.827Z,18.57
2016-05-11T01:40:53.827Z,18.63
2016-05-11T01:41:03.843Z,18.62
2016-05-11T01:41:13.843Z,18.67
2016-05-11T01:41:23.843Z,18.66
2016-05-11T01:41:33.847Z,18.58
2016-05-11T01:41:43.878Z,18.67
2016-05-11T01:41:53.862Z,18.62
2016-05-11T01:42:03.878Z,18.66
2016-05-11T01:42:13.878Z,18.67
2016-05-11T01:42:23.878Z,18.63
2016-05-11T01:42:33.895Z,18.62
2016-05-11T01:42:43.895Z,18.58
2016-05-11T01:42:53.911Z,18.63
2016-05-11T01:43:03.911Z,18.72
2016-05-11T01:43:13.911Z,18.66
2016-05-11T01:43:23.927Z,18.58
2016-05-11T01:43:33.914Z,18.63
2016-05-11T01:43:43.930Z,18.63
2016-05-11T01:43:53.930Z,18.6
2016-05-11T01:44:03.945Z,18.63
2016-05-11T01:44:13.945Z,18.62
2016-05-11T01:44:23.945Z,18.6
2016-05-11T01:44:33.964Z,18.62
2016-05-11T01:44:43.964Z,18.63
2016-05-11T01:44:53.964Z,18.6
2016-05-11T01:45:04.605Z,18.63
2016-05-11T01:45:14.245Z,18.66
2016-05-11T01:45:23.995Z,18.57
2016-05-11T01:45:34.435Z,18.67
2016-05-11T01:45:44.013Z,18.58
2016-05-11T01:45:54.028Z,18.55
2016-05-11T01:46:04.013Z,18.65
2016-05-11T01:46:14.013Z,18.6
2016-05-11T01:46:24.028Z,18.63
2016-05-11T01:46:34.030Z,18.57
2016-05-11T01:46:44.030Z,18.62
2016-05-11T01:46:54.046Z,18.57
2016-05-11T01:47:04.046Z,18.58
2016-05-11T01:47:14.046Z,18.62
2016-05-11T01:47:24.046Z,18.63
2016-05-11T01:47:34.065Z,18.63
2016-05-11T01:47:44.065Z,18.6
2016-05-11T01:47:53.924Z,18.63
2016-05-11T01:48:04.080Z,18.66
2016-05-11T01:48:14.096Z,18.63
2016-05-11T01:48:24.096Z,18.67
2016-05-11T01:48:34.100Z,18.58
2016-05-11T01:48:44.100Z,18.63
2016-05-11T01:48:54.116Z,18.65
2016-05-11T01:49:04.116Z,18.67
2016-05-11T01:49:14.131Z,18.54
2016-05-11T01:49:24.147Z,18.57
2016-05-11T01:49:34.133Z,18.58
2016-05-11T01:49:44.149Z,18.65
2016-05-11T01:49:54.149Z,18.52
2016-05-11T01:50:04.164Z,18.6
2016-05-11T01:50:14.164Z,18.52
2016-05-11T01:50:24.164Z,18.62
2016-05-11T01:50:34.167Z,18.5
2016-05-11T01:50:44.183Z,18.58
2016-05-11T01:50:54.183Z,18.6
2016-05-11T01:51:04.199Z,18.5
2016-05-11T01:51:14.199Z,18.6
2016-05-11T01:51:24.199Z,18.58
2016-05-11T01:51:34.201Z,18.57
2016-05-11T01:51:44.216Z,18.58
2016-05-11T01:51:54.216Z,18.6
2016-05-11T01:52:04.232Z,18.51
2016-05-11T01:52:14.232Z,18.65
2016-05-11T01:52:24.232Z,18.6
2016-05-11T01:52:34.251Z,18.58
2016-05-11T01:52:44.251Z,18.62
2016-05-11T01:52:54.094Z,18.57
2016-05-11T01:53:04.266Z,18.63
2016-05-11T01:53:14.266Z,18.63
2016-05-11T01:53:24.282Z,18.6
2016-05-11T01:53:34.285Z,18.54
2016-05-11T01:53:44.285Z,18.55
2016-05-11T01:53:54.285Z,18.62
2016-05-11T01:54:04.300Z,18.62
2016-05-11T01:54:14.300Z,18.57
2016-05-11T01:54:24.300Z,18.62
2016-05-11T01:54:34.318Z,18.62
2016-05-11T01:54:44.318Z,18.58
2016-05-11T01:54:54.334Z,18.55
2016-05-11T01:55:04.334Z,18.58
2016-05-11T01:55:14.334Z,18.5
2016-05-11T01:55:24.334Z,18.51
2016-05-11T01:55:34.352Z,18.52
2016-05-11T01:55:44.352Z,18.62
2016-05-11T01:55:54.384Z,18.58
2016-05-11T01:56:04.368Z,18.6
2016-05-11T01:56:14.384Z,18.5
2016-05-11T01:56:24.384Z,18.6
2016-05-11T01:56:34.387Z,18.58
2016-05-11T01:56:44.387Z,18.52
2016-05-11T01:56:54.402Z,18.47
2016-05-11T01:57:04.246Z,18.62
2016-05-11T01:57:14.402Z,18.54
2016-05-11T01:57:24.402Z,18.51
2016-05-11T01:57:34.452Z,18.48
2016-05-11T01:57:44.452Z,18.51
2016-05-11T01:57:54.436Z,18.62
2016-05-11T01:58:04.436Z,18.51
2016-05-11T01:58:14.436Z,18.58
2016-05-11T01:58:24.452Z,18.6
2016-05-11T01:58:34.470Z,18.45
2016-05-11T01:58:44.470Z,18.47
2016-05-11T01:58:54.470Z,18.48
2016-05-11T01:59:04.485Z,18.45
2016-05-11T01:59:14.485Z,18.62
2016-05-11T01:59:24.485Z,18.47
2016-05-11T01:59:34.504Z,18.5
2016-05-11T01:59:44.488Z,18.47
2016-05-11T01:59:54.504Z,18.44
2016-05-11T02:00:04.504Z,18.47
2016-05-11T02:00:14.535Z,18.48
2016-05-11T02:00:24.566Z,18.52
2016-05-11T02:00:34.522Z,18.5
2016-05-11T02:00:44.772Z,18.5
2016-05-11T02:00:54.537Z,18.47
2016-05-11T02:01:04.553Z,18.5
2016-05-11T02:01:14.553Z,18.48
2016-05-11T02:01:24.553Z,18.48
2016-05-11T02:01:34.556Z,18.47
2016-05-11T02:01:44.571Z,18.5
2016-05-11T02:01:54.571Z,18.5
2016-05-11T02:02:04.571Z,18.47
2016-05-11T02:02:14.587Z,18.45
2016-05-11T02:02:24.431Z,18.48
2016-05-11T02:02:34.589Z,18.47
2016-05-11T02:02:44.605Z,18.44
2016-05-11T02:02:54.605Z,18.51
2016-05-11T02:03:04.605Z,18.5
2016-05-11T02:03:14.480Z,18.45
2016-05-11T02:03:24.620Z,18.47
2016-05-11T02:03:34.640Z,18.52
2016-05-11T02:03:44.640Z,18.44
2016-05-11T02:03:54.640Z,18.48
2016-05-11T02:04:04.499Z,18.5
2016-05-11T02:04:14.656Z,18.51
2016-05-11T02:04:24.656Z,18.51
2016-05-11T02:04:34.674Z,18.5
2016-05-11T02:04:44.674Z,18.5
2016-05-11T02:04:54.690Z,18.5
2016-05-11T02:05:04.690Z,18.47
2016-05-11T02:05:14.690Z,18.47
2016-05-11T02:05:24.705Z,18.51
2016-05-11T02:05:34.707Z,18.47
2016-05-11T02:05:44.707Z,18.5
2016-05-11T02:05:54.707Z,18.45
2016-05-11T02:06:04.723Z,18.44
2016-05-11T02:06:14.567Z,18.58
2016-05-11T02:06:24.739Z,18.54
2016-05-11T02:06:34.741Z,18.45
2016-05-11T02:06:44.741Z,18.62
2016-05-11T02:06:54.741Z,18.52
2016-05-11T02:07:04.756Z,18.42
2016-05-11T02:07:14.756Z,18.44
2016-05-11T02:07:24.772Z,18.47
2016-05-11T02:07:34.775Z,18.52
2016-05-11T02:07:44.775Z,18.45
2016-05-11T02:07:54.791Z,18.48
2016-05-11T02:08:04.791Z,18.44
2016-05-11T02:08:14.791Z,18.47
2016-05-11T02:08:24.806Z,18.44
2016-05-11T02:08:34.809Z,18.45
2016-05-11T02:08:44.809Z,18.45
2016-05-11T02:08:54.825Z,18.44
2016-05-11T02:09:04.825Z,18.5
2016-05-11T02:09:14.825Z,18.47
2016-05-11T02:09:24.840Z,18.48
2016-05-11T02:09:34.842Z,18.48
2016-05-11T02:09:44.842Z,18.48
2016-05-11T02:09:54.858Z,18.47
2016-05-11T02:10:04.858Z,18.42
2016-05-11T02:10:14.874Z,18.48
2016-05-11T02:10:24.874Z,18.48
2016-05-11T02:10:34.877Z,18.47